Time;durP1;ratioP1;P1;durP2;ratioP2;P2;SDS_P1;SDS_P2;PMS_P1;PMS_P2;Temp;Humidity;BMP_temperature;BMP_pressure;BME280_temperature;BME280_humidity;BME280_pressure;Samples;Min_cycle;Max_cycle;Signal;HPM_P1;HPM_P2
2023/06/03 00:00:53;;;;;;;10.82;5.80;;;24.70;59.50;;;;;;5045726;28;20045;-55
2023/06/03 00:03:20;;;;;;;15.50;5.43;;;24.60;59.60;;;;;;5042484;28;20039;-55
2023/06/03 00:05:45;;;;;;;11.98;5.90;;;24.60;59.60;;;;;;5028608;28;20048;-55
2023/06/03 00:08:11;;;;;;;6.95;4.85;;;24.60;59.70;;;;;;5036508;28;20820;-55
2023/06/03 00:10:37;;;;;;;11.88;5.50;;;24.50;59.70;;;;;;5033993;28;20049;-55
2023/06/03 00:13:02;;;;;;;11.13;5.25;;;24.50;59.90;;;;;;5044414;28;20036;-55
2023/06/03 00:15:28;;;;;;;14.50;5.43;;;24.50;59.90;;;;;;5045004;28;20064;-55
2023/06/03 00:17:53;;;;;;;10.18;4.50;;;24.50;59.90;;;;;;5042525;28;20033;-55
2023/06/03 00:20:19;;;;;;;12.32;4.93;;;24.40;60.00;;;;;;5040665;28;20026;-55
2023/06/03 00:22:45;;;;;;;9.65;5.20;;;24.40;60.00;;;;;;5048981;28;20057;-55
2023/06/03 00:25:11;;;;;;;10.75;5.10;;;24.40;60.00;;;;;;5035011;28;20034;-55
2023/06/03 00:27:37;;;;;;;11.43;5.15;;;24.40;60.00;;;;;;5044347;28;20048;-55
2023/06/03 00:30:04;;;;;;;10.32;4.82;;;24.30;59.90;;;;;;5063397;28;20041;-55
2023/06/03 00:32:30;;;;;;;15.02;5.20;;;24.30;59.90;;;;;;5059232;28;20017;-55
2023/06/03 00:34:55;;;;;;;8.55;4.30;;;24.30;60.00;;;;;;5027917;28;20520;-55
2023/06/03 00:37:21;;;;;;;10.80;4.93;;;24.30;60.20;;;;;;5045340;28;20025;-55
2023/06/03 00:39:46;;;;;;;8.40;4.38;;;24.20;60.10;;;;;;5028055;28;20365;-55
2023/06/03 00:42:12;;;;;;;9.10;4.80;;;24.20;60.10;;;;;;5044835;28;20024;-55
2023/06/03 00:44:37;;;;;;;9.75;5.15;;;24.20;60.20;;;;;;5048431;28;20029;-55
2023/06/03 00:47:03;;;;;;;8.15;4.85;;;24.10;60.20;;;;;;5064401;28;20112;-55
2023/06/03 00:49:29;;;;;;;10.23;5.15;;;24.10;60.20;;;;;;5065663;28;20132;-55
2023/06/03 00:51:55;;;;;;;9.25;5.20;;;24.10;60.30;;;;;;5047835;28;20389;-55
2023/06/03 00:54:20;;;;;;;9.70;4.60;;;24.00;60.30;;;;;;5047496;28;20128;-55
2023/06/03 00:56:46;;;;;;;12.00;4.72;;;24.00;60.40;;;;;;5042199;28;20044;-55
2023/06/03 00:59:14;;;;;;;10.40;4.22;;;24.00;60.40;;;;;;5043490;28;20030;-55
2023/06/03 01:01:42;;;;;;;7.15;4.60;;;24.00;60.50;;;;;;5039446;28;20033;-55
2023/06/03 01:04:08;;;;;;;12.25;4.55;;;23.90;60.50;;;;;;5027737;28;20108;-55
2023/06/03 01:06:55;;;;;;;9.93;4.28;;;23.90;60.50;;;;;;5042970;28;20021;-55
2023/06/03 01:09:32;;;;;;;12.40;4.10;;;23.90;60.50;;;;;;5042934;28;20034;-55
2023/06/03 01:12:09;;;;;;;11.05;4.30;;;23.80;60.60;;;;;;5024717;28;20030;-55
2023/06/03 01:14:40;;;;;;;7.05;4.10;;;23.80;60.60;;;;;;5024377;28;20042;-55
2023/06/03 01:17:09;;;;;;;7.63;4.07;;;23.80;60.70;;;;;;5012681;28;20180;-55
2023/06/03 01:19:48;;;;;;;10.25;4.60;;;23.70;60.70;;;;;;5030162;28;20033;-55
2023/06/03 01:22:15;;;;;;;5.13;3.50;;;23.70;60.80;;;;;;5032798;28;20033;-55
2023/06/03 01:24:42;;;;;;;8.38;4.03;;;23.70;60.90;;;;;;5023391;28;20054;-55
2023/06/03 01:27:10;;;;;;;7.25;4.20;;;23.60;60.80;;;;;;5024837;28;20026;-55
2023/06/03 01:29:36;;;;;;;6.32;4.38;;;23.60;60.80;;;;;;5025175;28;20073;-53
2023/06/03 01:32:02;;;;;;;8.80;4.10;;;23.60;60.90;;;;;;5043124;28;20047;-55
2023/06/03 01:34:27;;;;;;;7.32;3.67;;;23.60;60.90;;;;;;5042516;28;20113;-55
2023/06/03 01:36:53;;;;;;;10.60;4.30;;;23.60;60.90;;;;;;5043622;28;20048;-55
2023/06/03 01:39:19;;;;;;;5.60;3.70;;;23.50;60.90;;;;;;5026114;28;20041;-55
2023/06/03 01:41:44;;;;;;;7.47;4.00;;;23.50;60.90;;;;;;5039674;28;20377;-55
2023/06/03 01:44:10;;;;;;;8.00;3.78;;;23.50;60.90;;;;;;5039238;28;20152;-55
2023/06/03 01:46:36;;;;;;;4.18;3.42;;;23.50;60.90;;;;;;5025065;28;20029;-55
2023/06/03 01:49:06;;;;;;;6.65;3.80;;;23.50;60.90;;;;;;5037064;28;20395;-55
2023/06/03 01:51:31;;;;;;;6.47;3.67;;;23.40;61.00;;;;;;5029346;28;20037;-55
2023/06/03 01:53:57;;;;;;;8.48;3.50;;;23.40;61.10;;;;;;5037536;28;20076;-55
2023/06/03 01:56:22;;;;;;;6.70;3.42;;;23.30;61.10;;;;;;5023674;28;20336;-55
2023/06/03 01:58:48;;;;;;;5.97;3.72;;;23.30;61.10;;;;;;5036046;28;20038;-55
2023/06/03 02:01:14;;;;;;;7.10;3.83;;;23.30;61.20;;;;;;5042343;28;20029;-55
2023/06/03 02:03:39;;;;;;;9.00;4.15;;;23.30;61.30;;;;;;5023825;28;20033;-55
2023/06/03 02:06:05;;;;;;;8.25;3.40;;;23.20;61.30;;;;;;5028165;28;20022;-55
2023/06/03 02:08:31;;;;;;;6.78;3.67;;;23.20;61.30;;;;;;5035288;28;20049;-55
2023/06/03 02:10:57;;;;;;;7.60;3.97;;;23.20;61.40;;;;;;5034241;28;20029;-55
2023/06/03 02:13:22;;;;;;;4.78;3.60;;;23.10;61.40;;;;;;5026993;28;20057;-55
2023/06/03 02:15:48;;;;;;;5.47;3.88;;;23.10;61.40;;;;;;5027638;28;20568;-55
2023/06/03 02:18:13;;;;;;;5.38;3.35;;;23.10;61.50;;;;;;5023677;28;20034;-55
2023/06/03 02:20:39;;;;;;;6.90;5.15;;;23.10;61.50;;;;;;5023033;28;20108;-55
2023/06/03 02:23:05;;;;;;;9.88;5.55;;;23.10;61.50;;;;;;5024200;28;20045;-55
2023/06/03 02:25:32;;;;;;;6.10;5.03;;;23.00;61.50;;;;;;5023427;28;20466;-55
2023/06/03 02:27:58;;;;;;;8.38;4.65;;;23.00;61.50;;;;;;5024503;28;20034;-55
2023/06/03 02:30:25;;;;;;;6.53;4.32;;;23.00;61.50;;;;;;5024324;28;20065;-55
2023/06/03 02:32:50;;;;;;;8.25;4.40;;;23.00;61.50;;;;;;5023030;28;20037;-59
2023/06/03 02:35:16;;;;;;;7.00;4.18;;;22.90;61.50;;;;;;5009203;28;20084;-58
2023/06/03 02:37:42;;;;;;;4.85;3.95;;;22.90;61.50;;;;;;5039883;28;20102;-59
2023/06/03 02:40:09;;;;;;;8.98;4.07;;;22.90;61.50;;;;;;5024348;28;20053;-59
2023/06/03 02:42:37;;;;;;;5.53;4.15;;;22.80;61.50;;;;;;5023141;28;20029;-59
2023/06/03 02:45:02;;;;;;;5.28;3.85;;;22.80;61.70;;;;;;5042581;28;20088;-59
2023/06/03 02:47:28;;;;;;;7.20;4.10;;;22.70;61.80;;;;;;5036260;28;20034;-59
2023/06/03 02:49:55;;;;;;;9.35;3.97;;;22.70;61.90;;;;;;5032960;28;20038;-59
2023/06/03 02:52:22;;;;;;;7.15;4.60;;;22.70;61.90;;;;;;5044346;28;20043;-59
2023/06/03 02:54:48;;;;;;;6.60;5.18;;;22.70;62.00;;;;;;5042285;28;20037;-59
2023/06/03 02:57:14;;;;;;;8.10;5.70;;;22.70;62.00;;;;;;5041646;28;20034;-59
2023/06/03 02:59:39;;;;;;;7.18;5.05;;;22.70;62.00;;;;;;5040817;28;20024;-59
2023/06/03 03:02:05;;;;;;;5.88;4.53;;;22.70;62.10;;;;;;5032541;28;20470;-59
2023/06/03 03:04:33;;;;;;;15.15;5.07;;;22.70;62.20;;;;;;5057718;28;20034;-59
2023/06/03 03:06:59;;;;;;;11.57;4.78;;;22.60;62.20;;;;;;5027414;28;20022;-59
2023/06/03 03:09:25;;;;;;;6.40;4.88;;;22.60;62.20;;;;;;5026573;28;20054;-59
2023/06/03 03:11:51;;;;;;;9.80;4.68;;;22.60;62.30;;;;;;5042553;28;20028;-59
2023/06/03 03:14:17;;;;;;;10.75;5.35;;;22.50;62.20;;;;;;5044587;28;20037;-59
2023/06/03 03:16:43;;;;;;;7.68;4.55;;;22.50;62.20;;;;;;5032289;28;20028;-59
2023/06/03 03:19:09;;;;;;;8.25;4.38;;;22.50;62.20;;;;;;5041695;28;20025;-59
2023/06/03 03:21:35;;;;;;;10.20;4.88;;;22.50;63.00;;;;;;5032684;28;20033;-59
2023/06/03 03:24:01;;;;;;;7.57;4.07;;;22.50;62.30;;;;;;5035583;28;20030;-59
2023/06/03 03:26:27;;;;;;;8.30;4.43;;;22.50;62.30;;;;;;5010261;28;20121;-59
2023/06/03 03:28:53;;;;;;;5.70;4.32;;;22.40;62.30;;;;;;5057295;28;20072;-59
2023/06/03 03:31:20;;;;;;;6.95;4.13;;;22.40;62.40;;;;;;5025728;28;20056;-59
2023/06/03 03:33:47;;;;;;;9.68;4.53;;;22.30;62.40;;;;;;5026242;28;20156;-59
2023/06/03 03:36:20;;;;;;;7.10;4.70;;;22.30;62.50;;;;;;5035159;28;20086;-59
2023/06/03 03:38:45;;;;;;;13.77;5.00;;;22.30;62.50;;;;;;5025859;28;20038;-59
2023/06/03 03:41:11;;;;;;;21.33;6.05;;;22.20;62.50;;;;;;5055510;28;20073;-59
2023/06/03 03:43:37;;;;;;;65.20;12.70;;;22.20;62.50;;;;;;5029361;28;20021;-59
2023/06/03 03:46:02;;;;;;;78.90;14.30;;;22.20;62.60;;;;;;5038155;28;20044;-59
2023/06/03 03:48:30;;;;;;;73.03;11.48;;;22.20;62.60;;;;;;5026996;28;20092;-59
2023/06/03 03:50:55;;;;;;;41.45;8.02;;;22.10;62.60;;;;;;5040286;28;20079;-59
2023/06/03 03:53:25;;;;;;;33.17;7.72;;;22.10;62.70;;;;;;5027734;28;20029;-59
2023/06/03 03:55:51;;;;;;;32.28;7.30;;;22.10;62.70;;;;;;5034970;28;20059;-59
2023/06/03 03:58:26;;;;;;;29.05;6.63;;;22.10;62.70;;;;;;5033148;28;20045;-59
2023/06/03 04:00:53;;;;;;;35.75;7.57;;;22.10;62.70;;;;;;5026738;28;20552;-59
2023/06/03 04:03:23;;;;;;;36.58;7.72;;;22.00;62.80;;;;;;5009476;28;20033;-58
2023/06/03 04:05:48;;;;;;;29.00;7.13;;;22.00;62.80;;;;;;5033573;28;20154;-59
2023/06/03 04:08:58;;;;;;;34.33;6.97;;;22.00;62.90;;;;;;5033823;28;20046;-58
2023/06/03 04:11:27;;;;;;;22.20;6.85;;;22.00;62.90;;;;;;5032200;28;20065;-59
2023/06/03 04:13:53;;;;;;;25.15;6.18;;;21.90;62.80;;;;;;5012948;28;20100;-59
2023/06/03 04:16:46;;;;;;;21.00;6.07;;;22.00;62.90;;;;;;5030823;28;20125;-58
2023/06/03 04:19:18;;;;;;;17.50;5.63;;;21.90;63.00;;;;;;5039624;28;20041;-59
2023/06/03 04:21:44;;;;;;;25.25;6.68;;;21.90;63.00;;;;;;5026262;28;20094;-59
2023/06/03 04:24:10;;;;;;;23.35;7.20;;;21.90;63.00;;;;;;5025077;28;20057;-58
2023/06/03 04:26:36;;;;;;;22.23;5.88;;;21.90;63.00;;;;;;5028582;28;20018;-59
2023/06/03 04:29:02;;;;;;;17.05;6.50;;;21.90;63.00;;;;;;5042303;28;20056;-59
2023/06/03 04:31:28;;;;;;;28.70;6.40;;;21.90;63.00;;;;;;5044822;28;20034;-59
2023/06/03 04:33:53;;;;;;;23.52;6.45;;;21.80;63.70;;;;;;5026408;28;20042;-59
2023/06/03 04:36:19;;;;;;;20.23;5.28;;;21.80;63.00;;;;;;5051452;28;20089;-59
2023/06/03 04:38:45;;;;;;;25.95;6.53;;;21.80;63.10;;;;;;5044528;28;20029;-59
2023/06/03 04:41:11;;;;;;;19.80;5.60;;;21.80;63.20;;;;;;5027453;28;20033;-59
2023/06/03 04:43:43;;;;;;;16.58;5.68;;;21.70;63.20;;;;;;5032435;28;20180;-58
2023/06/03 04:46:10;;;;;;;26.60;6.18;;;21.70;63.70;;;;;;5035936;28;20017;-59
2023/06/03 04:48:45;;;;;;;23.95;5.70;;;21.70;64.00;;;;;;5044888;28;20064;-59
2023/06/03 04:51:11;;;;;;;13.85;5.45;;;21.70;64.10;;;;;;5043217;28;20485;-59
2023/06/03 04:53:36;;;;;;;20.20;6.22;;;21.70;64.80;;;;;;5026701;28;20033;-59
2023/06/03 04:56:02;;;;;;;21.27;5.90;;;21.70;64.10;;;;;;5024205;28;20026;-59
2023/06/03 04:58:28;;;;;;;12.88;5.15;;;21.70;64.00;;;;;;5038068;28;20086;-59
2023/06/03 05:00:53;;;;;;;25.42;6.07;;;21.70;64.00;;;;;;5044756;28;20041;-58
2023/06/03 05:03:19;;;;;;;19.45;5.32;;;21.60;63.90;;;;;;5043527;28;20099;-59
2023/06/03 05:05:45;;;;;;;19.70;5.40;;;21.60;63.90;;;;;;5023419;28;20103;-59
2023/06/03 05:08:10;;;;;;;13.40;5.07;;;21.60;63.90;;;;;;5034637;28;20053;-59
2023/06/03 05:10:36;;;;;;;21.80;5.38;;;21.60;63.80;;;;;;5029895;28;20574;-59
2023/06/03 05:13:08;;;;;;;14.82;5.30;;;21.60;63.90;;;;;;5033174;28;20033;-58
2023/06/03 05:15:34;;;;;;;14.50;4.95;;;21.60;63.80;;;;;;5025543;28;20064;-59
2023/06/03 05:18:03;;;;;;;10.35;4.97;;;21.50;63.80;;;;;;5024352;28;20026;-59
2023/06/03 05:20:29;;;;;;;18.58;5.10;;;21.50;63.90;;;;;;5036133;28;20025;-59
2023/06/03 05:22:55;;;;;;;15.85;5.95;;;21.50;63.80;;;;;;5022610;28;20041;-58
2023/06/03 05:25:22;;;;;;;13.73;5.30;;;21.50;63.90;;;;;;5050525;28;20029;-59
2023/06/03 05:27:47;;;;;;;19.00;5.32;;;21.40;64.00;;;;;;5029500;28;20523;-58
2023/06/03 05:30:13;;;;;;;10.38;4.88;;;21.50;64.00;;;;;;5041112;28;20041;-59
2023/06/03 05:32:40;;;;;;;9.75;4.68;;;21.40;64.00;;;;;;5025706;28;20045;-59
2023/06/03 05:35:06;;;;;;;12.95;4.90;;;21.40;64.00;;;;;;5023702;28;20113;-59
2023/06/03 05:37:32;;;;;;;9.27;4.13;;;21.40;64.10;;;;;;5023434;28;20037;-59
2023/06/03 05:39:57;;;;;;;9.60;4.75;;;21.40;64.10;;;;;;5040078;28;20044;-59
2023/06/03 05:42:23;;;;;;;11.13;4.20;;;21.40;64.10;;;;;;5023628;28;20017;-59
2023/06/03 05:44:48;;;;;;;14.30;4.63;;;21.30;64.10;;;;;;5023726;28;20399;-59
2023/06/03 05:47:14;;;;;;;6.90;4.13;;;21.30;64.10;;;;;;5053930;28;20569;-59
2023/06/03 05:49:39;;;;;;;12.75;4.70;;;21.30;64.20;;;;;;5025012;28;20030;-59
2023/06/03 05:52:05;;;;;;;9.35;4.53;;;21.30;64.30;;;;;;5024980;28;20044;-59
2023/06/03 05:54:31;;;;;;;8.52;4.57;;;21.30;64.30;;;;;;5034427;28;20746;-59
2023/06/03 05:56:57;;;;;;;14.50;4.38;;;21.30;64.40;;;;;;5036146;28;20363;-59
2023/06/03 05:59:22;;;;;;;6.20;4.05;;;21.30;64.30;;;;;;5023493;28;20045;-59
2023/06/03 06:01:48;;;;;;;11.57;4.15;;;21.30;64.30;;;;;;5023418;28;20026;-59
2023/06/03 06:04:13;;;;;;;7.43;4.18;;;21.30;64.40;;;;;;5040020;28;20033;-59
2023/06/03 06:06:39;;;;;;;13.35;4.85;;;21.30;64.30;;;;;;5033409;28;20092;-59
2023/06/03 06:09:05;;;;;;;10.70;4.53;;;21.30;64.40;;;;;;5044090;28;20026;-59
2023/06/03 06:11:30;;;;;;;9.85;4.10;;;21.20;64.40;;;;;;5042144;28;20068;-59
2023/06/03 06:13:56;;;;;;;7.25;3.80;;;21.20;64.40;;;;;;5035807;28;20049;-58
2023/06/03 06:16:21;;;;;;;10.02;4.32;;;21.20;64.50;;;;;;5030467;28;20061;-59
2023/06/03 06:18:48;;;;;;;12.77;4.47;;;21.20;64.50;;;;;;5024392;28;20034;-59
2023/06/03 06:21:15;;;;;;;16.52;4.57;;;21.20;64.60;;;;;;5016161;28;20036;-59
2023/06/03 06:23:44;;;;;;;9.93;4.50;;;21.20;64.70;;;;;;5028510;28;20034;-59
2023/06/03 06:26:14;;;;;;;8.43;4.15;;;21.20;64.80;;;;;;5051068;28;20018;-59
2023/06/03 06:28:39;;;;;;;14.27;5.43;;;21.10;64.70;;;;;;5029090;28;20064;-59
2023/06/03 06:31:05;;;;;;;13.48;3.97;;;21.20;64.80;;;;;;5041744;28;20100;-59
2023/06/03 06:33:32;;;;;;;10.93;4.20;;;21.20;64.70;;;;;;5044862;28;20025;-59
2023/06/03 06:36:00;;;;;;;13.02;4.55;;;21.20;64.70;;;;;;5042986;28;20072;-58
2023/06/03 06:38:25;;;;;;;9.90;4.20;;;21.20;64.70;;;;;;5050968;28;20056;-59
2023/06/03 06:40:51;;;;;;;10.13;4.60;;;21.20;64.70;;;;;;5044720;28;20377;-59
2023/06/03 06:43:18;;;;;;;11.63;4.82;;;21.20;64.70;;;;;;5041020;28;20037;-59
2023/06/03 06:45:44;;;;;;;12.32;4.45;;;21.20;64.80;;;;;;5039166;28;20060;-58
2023/06/03 06:48:10;;;;;;;16.88;4.90;;;21.20;64.80;;;;;;5039160;28;20102;-59
2023/06/03 06:50:47;;;;;;;10.75;4.03;;;21.20;64.70;;;;;;5058425;28;20536;-59
2023/06/03 06:53:14;;;;;;;17.75;5.72;;;21.20;64.70;;;;;;5043846;28;20046;-59
2023/06/03 06:55:47;;;;;;;19.80;4.85;;;21.20;64.80;;;;;;5047562;28;20089;-59
2023/06/03 06:58:12;;;;;;;10.60;4.47;;;21.20;64.80;;;;;;5036748;28;20038;-59
2023/06/03 07:00:38;;;;;;;14.80;4.60;;;21.20;64.80;;;;;;5037977;28;20024;-59
2023/06/03 07:03:15;;;;;;;16.15;5.10;;;21.20;64.70;;;;;;5044356;28;20035;-59
2023/06/03 07:05:41;;;;;;;19.52;5.35;;;21.20;64.80;;;;;;5043611;28;20076;-59
2023/06/03 07:08:06;;;;;;;21.55;5.15;;;21.20;64.80;;;;;;5037475;28;20022;-59
2023/06/03 07:10:32;;;;;;;18.58;4.85;;;21.30;64.90;;;;;;5043933;28;20034;-59
2023/06/03 07:12:58;;;;;;;19.65;5.25;;;21.30;64.90;;;;;;5027175;28;20192;-59
2023/06/03 07:15:23;;;;;;;24.13;5.80;;;21.20;64.80;;;;;;5041411;28;22798;-60
2023/06/03 07:17:49;;;;;;;28.98;5.95;;;21.30;64.90;;;;;;5044303;28;20427;-59
2023/06/03 07:20:38;;;;;;;42.40;6.70;;;21.30;64.90;;;;;;5045097;28;20045;-59
2023/06/03 07:23:08;;;;;;;31.05;6.43;;;21.20;64.90;;;;;;5042358;28;20041;-59
2023/06/03 07:25:41;;;;;;;25.58;5.75;;;21.30;65.00;;;;;;5047084;28;20029;-59
2023/06/03 07:28:11;;;;;;;30.70;6.00;;;21.20;65.00;;;;;;5045249;28;20029;-59
2023/06/03 07:30:36;;;;;;;26.33;6.35;;;21.30;65.00;;;;;;5043337;28;20377;-60
2023/06/03 07:33:03;;;;;;;30.92;6.78;;;21.30;65.00;;;;;;5041992;28;20030;-59
2023/06/03 07:35:28;;;;;;;27.60;6.40;;;21.30;65.00;;;;;;5040081;28;20037;-60
2023/06/03 07:37:55;;;;;;;31.27;6.15;;;21.30;65.00;;;;;;5040684;28;20033;-59
2023/06/03 07:40:21;;;;;;;27.60;6.80;;;21.30;65.10;;;;;;5036359;28;20033;-59
2023/06/03 07:42:48;;;;;;;35.38;7.25;;;21.30;65.20;;;;;;5005020;28;20113;-59
2023/06/03 07:45:14;;;;;;;35.15;6.78;;;21.30;65.40;;;;;;5052088;28;20033;-59
2023/06/03 07:47:40;;;;;;;25.38;6.35;;;21.30;65.30;;;;;;5036653;28;20040;-59
2023/06/03 07:50:21;;;;;;;29.15;7.00;;;21.30;65.40;;;;;;5039585;28;20578;-59
2023/06/03 07:52:47;;;;;;;31.80;7.05;;;21.30;65.50;;;;;;5023929;28;20052;-59
2023/06/03 07:55:12;;;;;;;29.30;6.68;;;21.30;65.50;;;;;;5018427;28;20075;-59
2023/06/03 07:57:42;;;;;;;35.20;6.75;;;21.30;65.40;;;;;;5036149;28;20041;-59
2023/06/03 08:00:08;;;;;;;31.33;7.43;;;21.30;65.40;;;;;;5037268;28;20041;-59
2023/06/03 08:02:36;;;;;;;42.03;6.53;;;21.40;65.40;;;;;;5030114;28;20426;-59
2023/06/03 08:05:03;;;;;;;30.80;7.05;;;21.30;65.40;;;;;;5039765;28;20052;-59
2023/06/03 08:07:29;;;;;;;43.75;7.05;;;21.30;66.10;;;;;;5043944;28;20025;-59
2023/06/03 08:09:55;;;;;;;32.17;7.68;;;21.30;66.50;;;;;;5034886;28;20396;-59
2023/06/03 08:12:25;;;;;;;37.20;8.18;;;21.30;67.30;;;;;;5037912;28;20039;-59
2023/06/03 08:14:50;;;;;;;34.78;7.43;;;21.30;67.10;;;;;;5025540;28;20041;-59
2023/06/03 08:17:16;;;;;;;39.85;8.88;;;21.30;67.20;;;;;;5028746;28;20048;-59
2023/06/03 08:19:45;;;;;;;52.00;8.70;;;21.30;67.30;;;;;;5038266;28;20060;-58
2023/06/03 08:22:38;;;;;;;44.58;8.95;;;21.30;67.40;;;;;;5040076;28;20047;-59
2023/06/03 08:25:04;;;;;;;48.75;9.27;;;21.30;68.10;;;;;;5026954;28;20099;-59
2023/06/03 08:27:34;;;;;;;52.33;9.35;;;21.30;67.90;;;;;;5018882;28;20132;-59
2023/06/03 08:30:03;;;;;;;63.83;10.57;;;21.30;67.90;;;;;;5049290;28;20089;-59
2023/06/03 08:32:34;;;;;;;49.67;9.55;;;21.30;67.80;;;;;;5030289;28;20064;-59
2023/06/03 08:35:00;;;;;;;52.42;9.77;;;21.40;67.80;;;;;;5012386;28;20043;-59
2023/06/03 08:37:26;;;;;;;51.03;9.35;;;21.30;68.20;;;;;;5021238;28;20029;-59
2023/06/03 08:39:52;;;;;;;62.22;10.55;;;21.40;68.40;;;;;;5031505;28;20033;-59
2023/06/03 08:42:22;;;;;;;87.47;12.05;;;21.40;68.10;;;;;;5035611;28;20454;-59
2023/06/03 08:45:02;;;;;;;68.38;11.00;;;21.40;68.70;;;;;;5022390;28;20080;-58
2023/06/03 08:48:05;;;;;;;96.03;11.45;;;21.40;69.10;;;;;;5039121;28;20096;-59
2023/06/03 08:50:31;;;;;;;92.35;12.65;;;21.50;69.10;;;;;;5036606;28;20478;-58
2023/06/03 08:52:57;;;;;;;66.90;12.23;;;21.50;69.30;;;;;;5026056;28;20046;-59
2023/06/03 08:55:22;;;;;;;63.90;12.13;;;21.50;69.00;;;;;;5048579;28;20033;-58
2023/06/03 08:58:07;;;;;;;74.20;12.40;;;21.50;69.10;;;;;;5041391;28;20029;-59
2023/06/03 09:00:33;;;;;;;106.05;16.13;;;21.50;68.80;;;;;;5037659;28;20528;-59
2023/06/03 09:02:58;;;;;;;137.30;17.17;;;21.60;68.60;;;;;;5046228;28;20037;-59
2023/06/03 09:05:25;;;;;;;115.30;18.55;;;21.60;69.20;;;;;;5031969;28;20474;-59
2023/06/03 09:07:51;;;;;;;111.15;15.52;;;21.60;69.40;;;;;;5035067;28;20384;-59
2023/06/03 09:10:17;;;;;;;131.13;16.17;;;21.60;69.70;;;;;;5037845;28;20049;-59
2023/06/03 09:12:44;;;;;;;109.22;15.18;;;21.60;69.70;;;;;;5035698;28;20522;-59
2023/06/03 09:15:10;;;;;;;198.10;24.42;;;21.60;69.20;;;;;;5040100;28;20033;-59
2023/06/03 09:17:36;;;;;;;155.88;22.10;;;21.60;70.00;;;;;;5036969;28;20041;-54
2023/06/03 09:20:02;;;;;;;161.85;20.13;;;21.60;70.50;;;;;;5039293;28;20037;-55
2023/06/03 09:22:28;;;;;;;145.38;19.98;;;21.70;70.70;;;;;;5030226;28;20025;-55
2023/06/03 09:24:54;;;;;;;178.60;23.92;;;21.70;70.60;;;;;;5041267;28;20392;-55
2023/06/03 09:27:19;;;;;;;170.88;25.13;;;21.70;70.90;;;;;;5038830;28;20033;-54
2023/06/03 09:29:45;;;;;;;180.35;24.58;;;21.70;70.90;;;;;;5041715;28;20025;-55
2023/06/03 09:32:10;;;;;;;175.02;24.27;;;21.80;71.00;;;;;;5042270;28;20082;-55
2023/06/03 09:34:36;;;;;;;182.05;24.95;;;21.80;71.10;;;;;;5044662;28;20037;-55
2023/06/03 09:37:08;;;;;;;195.57;27.65;;;21.80;71.10;;;;;;5039342;28;20132;-55
2023/06/03 09:39:35;;;;;;;161.02;22.83;;;21.80;70.80;;;;;;5046944;28;20029;-55
2023/06/03 09:42:00;;;;;;;198.95;25.05;;;21.90;71.10;;;;;;5042441;28;20174;-55
2023/06/03 09:44:49;;;;;;;195.70;24.95;;;21.90;71.00;;;;;;5032778;28;20159;-55
2023/06/03 09:47:15;;;;;;;139.23;20.60;;;21.90;70.70;;;;;;5043493;28;20049;-55
2023/06/03 09:49:48;;;;;;;166.75;20.77;;;21.90;71.10;;;;;;5043376;28;20140;-55
2023/06/03 09:52:13;;;;;;;158.90;23.27;;;22.00;71.20;;;;;;5027116;28;20098;-55
2023/06/03 09:54:39;;;;;;;162.95;24.30;;;22.00;70.90;;;;;;5036134;28;20067;-55
2023/06/03 09:57:11;;;;;;;160.43;22.35;;;22.00;71.10;;;;;;5037633;28;20038;-55
2023/06/03 09:59:40;;;;;;;207.95;24.33;;;22.10;71.50;;;;;;5042094;28;20358;-55
2023/06/03 10:02:10;;;;;;;188.15;23.48;;;22.20;71.40;;;;;;5038477;28;20025;-53
2023/06/03 10:04:44;;;;;;;186.23;24.95;;;22.20;71.20;;;;;;5040129;28;20041;-55
2023/06/03 10:07:17;;;;;;;200.27;26.65;;;22.20;71.10;;;;;;5045008;28;20037;-55
2023/06/03 10:09:44;;;;;;;189.27;27.33;;;22.30;71.20;;;;;;5037130;28;20029;-55
2023/06/03 10:12:11;;;;;;;203.00;25.52;;;22.30;71.30;;;;;;5032553;28;20081;-55
2023/06/03 10:14:48;;;;;;;206.52;26.48;;;22.40;71.10;;;;;;5027915;28;20034;-55
2023/06/03 10:17:14;;;;;;;182.10;26.70;;;22.40;71.10;;;;;;5024824;28;20026;-55
2023/06/03 10:19:43;;;;;;;171.85;24.38;;;22.40;71.00;;;;;;5045513;28;20030;-55
2023/06/03 10:22:12;;;;;;;191.50;25.15;;;22.40;70.80;;;;;;5050541;28;20031;-55
2023/06/03 10:24:39;;;;;;;180.85;24.35;;;22.40;71.10;;;;;;5049551;28;20045;-53
2023/06/03 10:27:05;;;;;;;147.05;23.35;;;22.50;71.20;;;;;;5044961;28;20017;-53
2023/06/03 10:29:31;;;;;;;165.30;25.20;;;22.50;71.10;;;;;;5039394;28;20041;-54
2023/06/03 10:31:58;;;;;;;140.25;20.38;;;22.50;70.80;;;;;;5045554;28;20029;-54
2023/06/03 10:34:23;;;;;;;178.90;24.75;;;22.60;70.70;;;;;;5024626;28;20124;-54
2023/06/03 10:36:53;;;;;;;139.95;22.52;;;22.60;71.30;;;;;;5039566;28;20047;-56
2023/06/03 10:39:19;;;;;;;135.52;21.50;;;22.60;70.50;;;;;;5042452;28;20038;-53
2023/06/03 10:41:44;;;;;;;123.15;16.83;;;22.70;70.50;;;;;;5046954;28;20084;-53
2023/06/03 10:44:10;;;;;;;167.07;23.50;;;22.70;70.40;;;;;;5038926;28;20025;-53
2023/06/03 10:46:37;;;;;;;119.38;19.40;;;22.70;70.20;;;;;;5036791;28;20022;-53
2023/06/03 10:49:04;;;;;;;116.82;18.67;;;22.80;70.00;;;;;;5028664;28;20081;-54
2023/06/03 10:51:55;;;;;;;135.63;17.70;;;22.90;70.00;;;;;;5025761;28;20092;-53
2023/06/03 10:55:08;;;;;;;92.32;16.45;;;22.90;69.80;;;;;;5029189;28;20044;-54
2023/06/03 10:57:37;;;;;;;131.75;18.48;;;23.00;69.70;;;;;;5037992;28;20086;-53
2023/06/03 11:00:04;;;;;;;117.85;16.75;;;23.10;69.60;;;;;;5042389;28;20022;-53
2023/06/03 11:02:50;;;;;;;126.30;17.65;;;23.10;69.60;;;;;;5036817;28;20042;-53
2023/06/03 11:05:23;;;;;;;111.97;16.75;;;23.30;69.30;;;;;;5044687;28;20025;-53
2023/06/03 11:07:48;;;;;;;110.78;16.42;;;23.30;69.20;;;;;;5043138;28;20476;-53
2023/06/03 11:10:42;;;;;;;85.70;15.65;;;23.40;68.80;;;;;;5042098;28;20056;-53
2023/06/03 11:13:10;;;;;;;94.32;15.82;;;23.50;68.30;;;;;;5044119;28;20072;-54
2023/06/03 11:16:01;;;;;;;107.93;15.77;;;23.60;68.40;;;;;;5049699;28;20033;-53
2023/06/03 11:18:28;;;;;;;135.32;18.17;;;23.70;68.10;;;;;;5028239;28;20040;-54
2023/06/03 11:20:53;;;;;;;178.73;23.20;;;23.80;67.90;;;;;;5027589;28;20116;-53
2023/06/03 11:23:44;;;;;;;185.40;24.10;;;23.90;67.60;;;;;;5037960;28;20038;-53
2023/06/03 11:26:33;;;;;;;129.75;18.48;;;24.10;67.40;;;;;;5031205;28;20493;-54
2023/06/03 11:29:05;;;;;;;209.60;27.20;;;24.20;66.90;;;;;;5018274;28;20117;-54
2023/06/03 11:31:31;;;;;;;187.75;26.92;;;24.20;66.90;;;;;;5043625;28;20029;-53
2023/06/03 11:34:25;;;;;;;150.73;20.58;;;24.30;66.80;;;;;;5041775;28;20025;-54
2023/06/03 11:36:54;;;;;;;162.65;22.30;;;24.40;66.30;;;;;;5043440;28;20112;-53
2023/06/03 11:39:20;;;;;;;207.27;27.02;;;24.60;66.20;;;;;;5021619;28;20037;-54
2023/06/03 11:42:08;;;;;;;159.27;22.27;;;24.70;65.90;;;;;;5029003;28;20028;-54
2023/06/03 11:44:33;;;;;;;147.85;19.77;;;24.80;66.00;;;;;;5034874;28;20045;-53
2023/06/03 11:46:59;;;;;;;158.70;22.92;;;24.90;65.50;;;;;;5047190;28;20094;-53
2023/06/03 11:49:25;;;;;;;160.70;21.23;;;24.90;65.20;;;;;;5040006;28;20425;-53
2023/06/03 11:51:54;;;;;;;155.88;22.38;;;25.00;64.80;;;;;;5034931;28;20102;-54
2023/06/03 11:54:22;;;;;;;126.55;19.48;;;25.10;64.80;;;;;;5046243;28;20045;-53
2023/06/03 11:56:48;;;;;;;152.05;22.15;;;25.20;64.60;;;;;;5041646;28;20071;-53
2023/06/03 11:59:15;;;;;;;136.40;18.92;;;25.00;64.20;;;;;;5027519;28;20032;-53
2023/06/03 12:02:04;;;;;;;139.45;19.95;;;25.30;64.20;;;;;;5031845;28;20029;-54
2023/06/03 12:04:30;;;;;;;143.95;20.25;;;25.40;63.90;;;;;;5045470;28;20040;-54
2023/06/03 12:06:56;;;;;;;148.07;19.45;;;25.50;63.70;;;;;;5038582;28;20030;-53
2023/06/03 12:09:24;;;;;;;96.45;16.15;;;25.60;63.50;;;;;;5039235;28;20097;-53
2023/06/03 12:11:49;;;;;;;88.13;14.63;;;25.70;63.00;;;;;;5041814;28;20060;-53
2023/06/03 12:14:29;;;;;;;105.03;15.63;;;25.80;62.60;;;;;;5038599;28;20436;-53
2023/06/03 12:16:56;;;;;;;100.45;13.52;;;25.80;62.30;;;;;;5037800;28;20025;-53
2023/06/03 12:19:21;;;;;;;110.80;14.88;;;25.90;61.70;;;;;;5033780;28;20068;-54
2023/06/03 12:21:57;;;;;;;92.85;14.57;;;26.00;61.70;;;;;;5043574;28;20030;-54
2023/06/03 12:24:30;;;;;;;105.53;14.73;;;26.10;61.80;;;;;;5025201;28;20030;-53
2023/06/03 12:26:56;;;;;;;81.15;13.50;;;26.20;61.30;;;;;;5026139;28;20040;-53
2023/06/03 12:29:23;;;;;;;95.60;14.63;;;26.30;60.20;;;;;;5038343;28;20037;-53
2023/06/03 12:32:01;;;;;;;116.65;16.60;;;26.30;59.80;;;;;;5040847;28;20033;-54
2023/06/03 12:34:31;;;;;;;112.13;14.93;;;26.40;60.60;;;;;;5044523;28;20121;-53
2023/06/03 12:36:57;;;;;;;103.60;16.00;;;26.50;58.90;;;;;;5045166;28;20077;-54
2023/06/03 12:39:31;;;;;;;108.15;16.90;;;26.60;59.70;;;;;;5040407;28;20033;-54